Inver Grove Heights, MN

12:26 PM CST en Enero 26, 2015 (GMT -0600)
Grey Cloud Island | Change Station
CLOSE
Current Station
Estación meteorológica personal
Location: Grey Cloud Island, MN
Altura: 700 ft
Estaciones meteorológicas cercanas

Alt 700 ft 44.80 °N, 92.99 °W | Updated 3 seconds ago

Mostly Cloudy
Muy nublado
42.1 ° F
Sensación térmica 42 ° F
N
0.0
Viento Variable Viento desde ONO
Gusts 13.0 mph

Hoy
Alta -- | Baja -- ° F
--% Posibilidad de precipitaciones
Ayer
Alta -- | Baja -- ° F
Precip. -- pul
7:38 AM 5:11 PM
Creciente, 45% visible
Presión 29.72 pul
Visibilidad 10.0 Millas
Nubes Muy nublado 6500 ft
Muy nublado 10000 ft
Vientos helados 42 ° F
Punto de rocío 35 ° F
Humedad 75%
Precipitaciones 0.00 pul
Espesor de la nieve No disponible.
UV 1 de una escala de 12
Polen .10 de una escala de 12
Calidad del aire No disponible.
Flu Activity No disponible.
METAR KSGS 261810Z AUTO 30008G15KT 10SM BKN065 BKN100 06/00 A2972 RMK AO2 T00550003

More Conditions Fewer Conditions

Presión 29.72 pul
Visibilidad 10.0 Millas
Nubes Muy nublado 6500 ft
Muy nublado 10000 ft
Vientos helados 42 ° F
Punto de rocío 35 ° F
Humedad 75%
Precipitaciones 0.00 pul
Espesor de la nieve No disponible.
UV 1 de una escala de 12
Polen .10 de una escala de 12
Calidad del aire No disponible.
Flu Activity No disponible.
METAR KSGS 261810Z AUTO 30008G15KT 10SM BKN065 BKN100 06/00 A2972 RMK AO2 T00550003

More Conditions Fewer Conditions

10-Day Weather Forecast

Almanac

Astronomía

Jan. 26, 2015 Salida Puesta
Hora real
Crepúsculo civil
Crepúsculo náutico
Crepúsculo astronómico
Luna
Horas de luz
Horas de luz
Tomorrow will be .
, % of the Moon is Illuminated

Extremos de hoy

Máximos del estado Bajos del estado

Community

WunderPhotos

Upload Photos

1,790,308 ¡fotos cargadas!

WunderBlogs® & News

Nearby

Calidad del aire

  Calidad del aire Índice AQ Contaminante
Not available.

Grosos de nieve

Estación Profundido Altura

Actividad de terremotos

Ciudad Distance Mag. Tiempo y dato
Magnitud mínima muestra es 2,5.

Temperaturas de aguas costeras

Lugar Temperatura

Estaciones meteorológicas cercanas